createdAt,value
2023-01-22T00:01:17.918Z,103098.34
2023-01-22T00:03:46.562Z,103067.31
2023-01-22T00:06:13.484Z,103103.75
2023-01-22T00:08:39.983Z,103103.69
2023-01-22T00:11:07.016Z,103094.88
2023-01-22T00:13:33.523Z,103097.50
2023-01-22T00:16:00.439Z,103086.06
2023-01-22T00:18:27.288Z,103083.50
2023-01-22T00:20:55.168Z,103065.06
2023-01-22T00:23:22.561Z,103087.09
2023-01-22T00:25:49.140Z,103075.72
2023-01-22T00:28:16.903Z,103073.88
2023-01-22T00:30:43.474Z,103074.97
2023-01-22T00:33:10.057Z,103081.88
2023-01-22T00:35:36.478Z,103078.25
2023-01-22T00:38:03.791Z,103072.94
2023-01-22T00:40:30.273Z,103059.09
2023-01-22T00:42:56.684Z,103052.16
2023-01-22T00:45:23.115Z,103075.53
2023-01-22T00:47:49.521Z,103061.63
2023-01-22T00:50:16.478Z,103057.88
2023-01-22T00:52:43.281Z,103078.94
2023-01-22T00:55:09.784Z,103069.28
2023-01-22T00:57:36.207Z,103076.38
2023-01-22T01:00:02.686Z,103068.56
2023-01-22T01:02:29.104Z,103081.81
2023-01-22T01:04:56.844Z,103077.22
2023-01-22T01:07:24.362Z,103079.91
2023-01-22T01:09:50.773Z,103080.00
2023-01-22T01:12:17.595Z,103080.84
2023-01-22T01:14:44.026Z,103071.94
2023-01-22T01:17:10.449Z,103079.03
2023-01-22T01:19:36.848Z,103071.09
2023-01-22T01:22:03.308Z,103074.72
2023-01-22T01:24:29.667Z,103070.28
2023-01-22T01:26:56.076Z,103070.34
2023-01-22T01:29:22.477Z,103066.78
2023-01-22T01:31:53.163Z,103071.13
2023-01-22T01:34:19.690Z,103034.81
2023-01-22T01:36:49.168Z,103071.84
2023-01-22T01:39:15.918Z,103073.66
2023-01-22T01:41:42.360Z,103069.34
2023-01-22T01:44:15.422Z,103045.84
2023-01-22T01:47:05.796Z,103074.56
2023-01-22T01:49:37.464Z,103056.38
2023-01-22T01:52:10.677Z,103073.75
2023-01-22T01:54:39.284Z,103037.31
2023-01-22T01:57:16.560Z,103070.19
2023-01-22T01:59:43.198Z,103066.72
2023-01-22T02:02:09.959Z,103067.63
2023-01-22T02:04:36.438Z,103066.81
2023-01-22T02:07:05.442Z,103063.28
2023-01-22T02:09:32.232Z,103073.88
2023-01-22T02:11:58.781Z,103069.53
2023-01-22T02:14:32.599Z,103067.53
2023-01-22T02:17:11.611Z,103044.84
2023-01-22T02:19:41.932Z,103067.63
2023-01-22T02:22:14.059Z,103057.72
2023-01-22T02:24:40.633Z,103065.84
2023-01-22T02:27:07.331Z,103054.44
2023-01-22T02:29:33.738Z,103061.63
2023-01-22T02:32:00.326Z,103030.19
2023-01-22T02:34:26.985Z,103064.31
2023-01-22T02:36:54.153Z,103057.41
2023-01-22T02:39:20.546Z,103065.91
2023-01-22T02:41:47.098Z,103056.34
2023-01-22T02:44:13.553Z,103054.44
2023-01-22T02:46:40.158Z,103045.63
2023-01-22T02:49:06.592Z,103042.97
2023-01-22T02:51:33.109Z,103030.97
2023-01-22T02:53:59.628Z,103036.31
2023-01-22T02:56:26.168Z,103049.16
2023-01-22T02:58:52.578Z,103049.22
2023-01-22T03:01:23.263Z,103036.91
2023-01-22T03:03:58.712Z,103049.22
2023-01-22T03:06:27.476Z,103059.78
2023-01-22T03:08:59.269Z,103055.31
2023-01-22T03:11:29.241Z,103047.31
2023-01-22T03:14:15.178Z,103058.72
2023-01-22T03:17:01.050Z,103058.75
2023-01-22T03:19:46.304Z,103043.78
2023-01-22T03:22:13.925Z,103020.44
2023-01-22T03:24:40.395Z,103033.59
2023-01-22T03:27:06.799Z,103041.16
2023-01-22T03:29:34.043Z,103044.59
2023-01-22T03:32:00.583Z,103046.28
2023-01-22T03:34:27.105Z,103048.03
2023-01-22T03:36:53.514Z,103048.81
2023-01-22T03:39:19.976Z,103040.88
2023-01-22T03:41:46.377Z,103041.97
2023-01-22T03:44:14.371Z,103035.75
2023-01-22T03:46:41.188Z,103034.94
2023-01-22T03:49:09.006Z,103041.88
2023-01-22T03:51:36.381Z,103045.47
2023-01-22T03:54:02.836Z,103032.94
2023-01-22T03:56:29.369Z,103037.31
2023-01-22T03:58:56.325Z,103032.00
2023-01-22T04:01:26.192Z,103035.53
2023-01-22T04:03:53.199Z,103044.34
2023-01-22T04:06:20.575Z,103026.84
2023-01-22T04:08:50.023Z,103037.66
2023-01-22T04:11:17.163Z,103021.78
2023-01-22T04:13:44.885Z,103044.19
2023-01-22T04:16:12.819Z,103038.91
2023-01-22T04:18:39.734Z,103050.34
2023-01-22T04:21:06.144Z,103035.59
2023-01-22T04:23:33.059Z,103035.47
2023-01-22T04:25:59.517Z,103024.00
2023-01-22T04:28:26.023Z,102991.91
2023-01-22T04:30:54.990Z,103028.38
2023-01-22T04:33:21.521Z,103010.19
2023-01-22T04:35:53.371Z,103025.75
2023-01-22T04:38:20.275Z,103009.31
2023-01-22T04:40:46.841Z,103023.00
2023-01-22T04:43:13.450Z,103021.38
2023-01-22T04:45:39.898Z,103026.56
2023-01-22T04:48:08.419Z,103018.56
2023-01-22T04:50:35.163Z,103013.13
2023-01-22T04:53:02.085Z,103022.03
2023-01-22T04:55:29.544Z,103021.19
2023-01-22T04:57:57.784Z,103021.13
2023-01-22T05:00:25.575Z,103013.41
2023-01-22T05:02:59.407Z,103010.66
2023-01-22T05:05:26.837Z,103027.09
2023-01-22T05:07:53.614Z,103016.53
2023-01-22T05:10:21.152Z,103020.91
2023-01-22T05:12:48.432Z,103023.56
2023-01-22T05:15:23.614Z,103025.56
2023-01-22T05:17:51.011Z,103031.56
2023-01-22T05:20:17.763Z,103012.38
2023-01-22T05:22:44.465Z,103023.50
2023-01-22T05:25:11.100Z,103021.72
2023-01-22T05:27:37.538Z,103026.97
2023-01-22T05:30:05.973Z,103013.72
2023-01-22T05:32:32.410Z,103024.25
2023-01-22T05:34:58.821Z,103025.09
2023-01-22T05:37:25.265Z,103033.06
2023-01-22T05:39:51.794Z,103032.13
2023-01-22T05:42:18.276Z,103019.88
2023-01-22T05:44:44.759Z,102992.97
2023-01-22T05:47:13.446Z,103027.72
2023-01-22T05:49:40.410Z,103027.00
2023-01-22T05:52:07.358Z,103014.59
2023-01-22T05:54:33.753Z,103024.38
2023-01-22T05:57:00.262Z,103012.41
2023-01-22T05:59:26.813Z,103026.97
2023-01-22T06:01:53.315Z,103019.38
2023-01-22T06:04:19.766Z,103026.09
2023-01-22T06:06:46.189Z,103037.50
2023-01-22T06:09:13.873Z,103028.75
2023-01-22T06:11:40.392Z,103032.22
2023-01-22T06:14:07.031Z,103044.59
2023-01-22T06:16:33.804Z,103031.31
2023-01-22T06:19:00.211Z,103035.69
2023-01-22T06:21:26.918Z,103032.22
2023-01-22T06:23:53.526Z,103034.91
2023-01-22T06:26:19.929Z,103026.94
2023-01-22T06:28:46.340Z,103036.53
2023-01-22T06:31:12.981Z,103021.91
2023-01-22T06:33:41.193Z,103010.63
2023-01-22T06:36:08.016Z,103034.03
2023-01-22T06:38:34.447Z,103021.72
2023-01-22T06:41:01.099Z,103019.94
2023-01-22T06:43:28.564Z,103005.25
2023-01-22T06:45:56.215Z,103033.78
2023-01-22T06:48:22.975Z,103035.50
2023-01-22T06:50:49.574Z,103039.19
2023-01-22T06:53:15.996Z,103044.44
2023-01-22T06:55:42.421Z,103049.59
2023-01-22T06:58:08.983Z,103037.59
2023-01-22T07:00:35.419Z,103036.81
2023-01-22T07:03:05.791Z,103059.28
2023-01-22T07:05:32.239Z,103049.63
2023-01-22T07:07:58.636Z,103053.84
2023-01-22T07:10:25.360Z,103053.06
2023-01-22T07:12:55.238Z,103065.28
2023-01-22T07:15:22.934Z,103055.00
2023-01-22T07:17:51.403Z,103057.44
2023-01-22T07:20:19.316Z,103068.81
2023-01-22T07:22:46.007Z,103066.09
2023-01-22T07:25:12.518Z,103047.94
2023-01-22T07:27:39.097Z,103059.03
2023-01-22T07:30:06.713Z,103067.75
2023-01-22T07:32:33.362Z,103054.53
2023-01-22T07:34:59.755Z,103066.00
2023-01-22T07:37:26.393Z,103074.84
2023-01-22T07:39:52.937Z,103083.53
2023-01-22T07:42:19.363Z,103079.94
2023-01-22T07:44:45.785Z,103076.25
2023-01-22T07:47:12.192Z,103048.50
2023-01-22T07:49:38.666Z,103075.47
2023-01-22T07:52:05.170Z,103080.63
2023-01-22T07:54:36.073Z,103083.25
2023-01-22T07:57:03.728Z,103085.78
2023-01-22T07:59:30.343Z,103073.81
2023-01-22T08:01:57.075Z,103091.81
2023-01-22T08:04:24.523Z,103093.53
2023-01-22T08:06:51.631Z,103099.78
2023-01-22T08:09:24.707Z,103083.44
2023-01-22T08:11:52.459Z,103103.16
2023-01-22T08:14:19.688Z,103089.41
2023-01-22T08:16:46.346Z,103108.41
2023-01-22T08:19:13.150Z,103122.50
2023-01-22T08:21:39.602Z,103113.53
2023-01-22T08:24:08.120Z,103117.03
2023-01-22T08:26:34.570Z,103118.06
2023-01-22T08:29:04.341Z,103101.31
2023-01-22T08:31:33.219Z,103124.03
2023-01-22T08:34:00.264Z,103123.75
2023-01-22T08:36:28.092Z,103115.81
2023-01-22T08:38:55.079Z,103125.50
2023-01-22T08:41:21.893Z,103129.69
2023-01-22T08:43:48.634Z,103125.50
2023-01-22T08:46:15.073Z,103129.59
2023-01-22T08:48:43.964Z,103109.66
2023-01-22T08:51:11.659Z,103128.75
2023-01-22T08:53:38.264Z,103133.13
2023-01-22T08:56:05.219Z,103138.28
2023-01-22T08:58:31.860Z,103134.63
2023-01-22T09:00:58.468Z,103125.69
2023-01-22T09:03:25.318Z,103128.28
2023-01-22T09:05:51.902Z,103112.38
2023-01-22T09:08:18.447Z,103125.69
2023-01-22T09:10:44.857Z,103123.91
2023-01-22T09:13:11.471Z,103122.13
2023-01-22T09:15:39.794Z,103119.25
2023-01-22T09:18:06.801Z,103122.78
2023-01-22T09:20:33.611Z,103110.50
2023-01-22T09:23:00.006Z,103110.34
2023-01-22T09:25:26.664Z,103123.31
2023-01-22T09:28:00.408Z,103126.69
2023-01-22T09:30:30.018Z,103122.28
2023-01-22T09:32:56.748Z,103122.13
2023-01-22T09:35:23.235Z,103118.56
2023-01-22T09:37:49.747Z,103121.13
2023-01-22T09:40:31.382Z,103120.94
2023-01-22T09:43:15.552Z,103125.25
2023-01-22T09:45:42.418Z,103134.88
2023-01-22T09:48:17.238Z,103126.03
2023-01-22T09:50:44.228Z,103105.19
2023-01-22T09:53:16.139Z,103112.06
2023-01-22T09:55:47.396Z,103124.31
2023-01-22T09:58:16.961Z,103113.03
2023-01-22T10:00:48.718Z,103124.13
2023-01-22T10:03:31.520Z,103137.25
2023-01-22T10:06:03.285Z,103135.38
2023-01-22T10:08:38.076Z,103120.41
2023-01-22T10:11:07.827Z,103114.41
2023-01-22T10:13:37.194Z,103122.00
2023-01-22T10:16:05.462Z,103135.34
2023-01-22T10:18:43.917Z,103127.28
2023-01-22T10:21:22.215Z,103118.56
2023-01-22T10:23:50.167Z,103131.50
2023-01-22T10:26:25.754Z,103126.13
2023-01-22T10:28:58.290Z,103129.66
2023-01-22T10:31:28.591Z,103119.88
2023-01-22T10:34:00.326Z,103128.63
2023-01-22T10:36:28.306Z,103124.06
2023-01-22T10:39:11.823Z,103113.28
2023-01-22T10:41:38.402Z,103111.72
2023-01-22T10:44:10.831Z,103121.97
2023-01-22T10:46:37.232Z,103120.16
2023-01-22T10:49:08.145Z,103113.88
2023-01-22T10:51:38.365Z,103103.28
2023-01-22T10:54:16.417Z,103099.28
2023-01-22T10:56:43.036Z,103102.06
2023-01-22T10:59:28.490Z,103101.06
2023-01-22T11:01:58.288Z,103102.81
2023-01-22T11:04:29.576Z,103089.63
2023-01-22T11:07:15.619Z,103105.81
2023-01-22T11:09:55.007Z,103105.50
2023-01-22T11:12:29.102Z,103098.19
2023-01-22T11:15:06.536Z,103093.69
2023-01-22T11:17:46.637Z,103079.41
2023-01-22T11:20:23.220Z,103070.28
2023-01-22T11:23:10.034Z,103093.59
2023-01-22T11:26:14.825Z,103085.66
2023-01-22T11:29:04.743Z,103100.09
2023-01-22T11:31:43.073Z,103056.91
2023-01-22T11:34:35.692Z,103082.38
2023-01-22T11:37:12.747Z,103090.19
2023-01-22T11:39:55.008Z,103085.91
2023-01-22T11:42:27.443Z,103082.19
2023-01-22T11:44:59.894Z,103083.19
2023-01-22T11:48:04.278Z,103079.69
2023-01-22T11:50:44.139Z,103064.06
2023-01-22T11:53:20.130Z,103073.41
2023-01-22T11:56:00.168Z,103079.53
2023-01-22T11:59:03.443Z,103077.63
2023-01-22T12:02:08.998Z,103062.53
2023-01-22T12:04:57.393Z,103073.88
2023-01-22T12:07:54.067Z,103080.00
2023-01-22T12:10:35.641Z,103083.56
2023-01-22T12:13:23.955Z,103078.22
2023-01-22T12:16:05.706Z,103077.19
2023-01-22T12:18:53.888Z,103081.72
2023-01-22T12:21:40.241Z,103084.22
2023-01-22T12:24:29.438Z,103086.81
2023-01-22T12:27:20.530Z,103076.16
2023-01-22T12:29:59.243Z,103066.78
2023-01-22T12:32:29.319Z,103067.38
2023-01-22T12:35:09.005Z,103076.16
2023-01-22T12:37:47.630Z,103067.22
2023-01-22T12:40:59.347Z,103073.38
2023-01-22T12:43:51.994Z,103069.06
2023-01-22T12:46:42.560Z,103068.13
2023-01-22T12:49:11.580Z,103069.63
2023-01-22T12:51:43.348Z,103074.78
2023-01-22T12:54:29.474Z,103070.09
2023-01-22T12:57:17.103Z,103063.81
2023-01-22T12:59:50.071Z,103072.63
2023-01-22T13:02:30.351Z,103069.00
2023-01-22T13:05:08.252Z,103066.69
2023-01-22T13:07:37.737Z,103066.34
2023-01-22T13:10:21.524Z,103064.47
2023-01-22T13:12:57.509Z,103068.94
2023-01-22T13:15:30.876Z,103066.34
2023-01-22T13:18:07.198Z,103061.22
2023-01-22T13:20:45.696Z,103064.69
2023-01-22T13:23:14.878Z,103066.47
2023-01-22T13:25:42.904Z,103070.84
2023-01-22T13:28:19.290Z,103065.47
2023-01-22T13:30:59.736Z,103072.38
2023-01-22T13:33:27.310Z,103068.06
2023-01-22T13:35:54.128Z,103063.06
2023-01-22T13:38:32.624Z,103059.56
2023-01-22T13:41:09.855Z,103080.38
2023-01-22T13:43:38.339Z,103071.72
2023-01-22T13:46:05.715Z,103084.94
2023-01-22T13:48:32.439Z,103077.88
2023-01-22T13:51:02.510Z,103057.28
2023-01-22T13:53:31.026Z,103090.41
2023-01-22T13:55:58.358Z,103086.09
2023-01-22T13:58:49.303Z,103087.00
2023-01-22T14:01:32.171Z,103086.03
2023-01-22T14:04:04.177Z,103084.41
2023-01-22T14:06:41.835Z,103100.53
2023-01-22T14:09:09.255Z,103093.44
2023-01-22T14:11:40.603Z,103095.47
2023-01-22T14:14:18.388Z,103097.03
2023-01-22T14:16:45.195Z,103083.47
2023-01-22T14:19:12.106Z,103095.53
2023-01-22T14:21:38.585Z,103088.66
2023-01-22T14:24:05.722Z,103110.41
2023-01-22T14:26:32.291Z,103114.84
2023-01-22T14:28:58.687Z,103121.03
2023-01-22T14:31:25.337Z,103109.56
2023-01-22T14:33:51.870Z,103119.19
2023-01-22T14:36:20.322Z,103120.00
2023-01-22T14:38:49.415Z,103122.56
2023-01-22T14:41:15.837Z,103119.72
2023-01-22T14:43:42.220Z,103122.31
2023-01-22T14:46:09.033Z,103129.31
2023-01-22T14:48:35.568Z,103111.88
2023-01-22T14:51:08.324Z,103100.53
2023-01-22T14:53:34.941Z,103126.47
2023-01-22T14:56:01.524Z,103124.00
2023-01-22T14:58:28.261Z,103129.03
2023-01-22T15:00:54.650Z,103131.78
2023-01-22T15:03:21.086Z,103130.91
2023-01-22T15:05:51.752Z,103141.38
2023-01-22T15:08:18.191Z,103134.59
2023-01-22T15:10:45.076Z,103147.69
2023-01-22T15:13:11.735Z,103146.09
2023-01-22T15:15:38.573Z,103142.44
2023-01-22T15:18:04.989Z,103152.91
2023-01-22T15:20:31.412Z,103154.72
2023-01-22T15:22:57.860Z,103157.31
2023-01-22T15:25:24.277Z,103153.94
2023-01-22T15:27:50.698Z,103157.34
2023-01-22T15:30:17.723Z,103166.28
2023-01-22T15:32:44.729Z,103177.66
2023-01-22T15:35:11.275Z,103165.47
2023-01-22T15:37:37.679Z,103174.34
2023-01-22T15:40:04.561Z,103171.75
2023-01-22T15:42:31.131Z,103176.19
2023-01-22T15:44:57.504Z,103183.25
2023-01-22T15:47:24.048Z,103182.38
2023-01-22T15:49:50.553Z,103185.09
2023-01-22T15:52:17.180Z,103175.78
2023-01-22T15:54:43.874Z,103190.50
2023-01-22T15:57:10.354Z,103196.75
2023-01-22T15:59:39.066Z,103185.31
2023-01-22T16:02:05.803Z,103187.91
2023-01-22T16:04:32.280Z,103183.84
2023-01-22T16:06:58.747Z,103194.16
2023-01-22T16:09:25.243Z,103200.44
2023-01-22T16:11:52.472Z,103199.59
2023-01-22T16:14:19.748Z,103202.25
2023-01-22T16:16:46.218Z,103203.16
2023-01-22T16:19:15.643Z,103201.38
2023-01-22T16:21:43.390Z,103198.72
2023-01-22T16:24:10.007Z,103205.75
2023-01-22T16:26:36.836Z,103206.75
2023-01-22T16:29:05.662Z,103199.59
2023-01-22T16:31:35.083Z,103192.84
2023-01-22T16:34:08.984Z,103204.97
2023-01-22T16:36:35.684Z,103211.19
2023-01-22T16:39:02.122Z,103213.84
2023-01-22T16:41:29.764Z,103205.00
2023-01-22T16:43:59.259Z,103200.63
2023-01-22T16:46:29.193Z,103211.25
2023-01-22T16:48:57.928Z,103202.53
2023-01-22T16:51:26.914Z,103212.09
2023-01-22T16:53:56.755Z,103211.28
2023-01-22T16:56:23.367Z,103193.94
2023-01-22T16:58:50.010Z,103200.97
2023-01-22T17:01:16.534Z,103214.88
2023-01-22T17:03:43.686Z,103211.47
2023-01-22T17:06:21.427Z,103216.66
2023-01-22T17:08:48.286Z,103209.78
2023-01-22T17:11:16.851Z,103210.72
2023-01-22T17:13:43.804Z,103216.94
2023-01-22T17:16:11.237Z,103223.88
2023-01-22T17:18:37.914Z,103189.03
2023-01-22T17:21:06.817Z,103197.63
2023-01-22T17:23:33.511Z,103214.13
2023-01-22T17:26:00.279Z,103203.91
2023-01-22T17:28:26.695Z,103203.75
2023-01-22T17:30:53.200Z,103222.13
2023-01-22T17:33:20.827Z,103218.75
2023-01-22T17:35:47.453Z,103221.31
2023-01-22T17:38:14.443Z,103222.13
2023-01-22T17:40:42.127Z,103226.63
2023-01-22T17:43:08.596Z,103225.03
2023-01-22T17:45:39.914Z,103230.34
2023-01-22T17:48:06.713Z,103237.44
2023-01-22T17:50:33.169Z,103229.59
2023-01-22T17:52:59.770Z,103231.31
2023-01-22T17:55:28.921Z,103241.00
2023-01-22T17:57:56.418Z,103209.00
2023-01-22T18:00:23.060Z,103242.91
2023-01-22T18:02:50.167Z,103239.69
2023-01-22T18:05:17.268Z,103243.81
2023-01-22T18:07:43.861Z,103241.97
2023-01-22T18:10:11.323Z,103248.22
2023-01-22T18:12:38.013Z,103241.13
2023-01-22T18:15:04.825Z,103227.44
2023-01-22T18:17:31.199Z,103243.94
2023-01-22T18:19:57.608Z,103252.59
2023-01-22T18:22:24.477Z,103257.91
2023-01-22T18:24:50.957Z,103265.00
2023-01-22T18:27:17.466Z,103262.28
2023-01-22T18:29:44.161Z,103225.25
2023-01-22T18:32:10.536Z,103263.19
2023-01-22T18:34:36.935Z,103264.13
2023-01-22T18:37:03.392Z,103250.09
2023-01-22T18:39:31.269Z,103246.81
2023-01-22T18:41:57.731Z,103255.66
2023-01-22T18:44:27.575Z,103264.19
2023-01-22T18:46:57.248Z,103265.16
2023-01-22T18:49:24.041Z,103275.75
2023-01-22T18:51:50.485Z,103265.25
2023-01-22T18:54:17.366Z,103265.19
2023-01-22T18:56:44.399Z,103275.81
2023-01-22T18:59:12.890Z,103276.91
2023-01-22T19:01:40.746Z,103278.66
2023-01-22T19:04:09.251Z,103282.28
2023-01-22T19:06:38.148Z,103278.75
2023-01-22T19:09:12.123Z,103292.94
2023-01-22T19:11:40.764Z,103283.28
2023-01-22T19:14:09.096Z,103275.84
2023-01-22T19:16:37.180Z,103301.09
2023-01-22T19:19:11.005Z,103296.84
2023-01-22T19:21:46.644Z,103301.31
2023-01-22T19:24:15.255Z,103303.16
2023-01-22T19:26:44.356Z,103297.09
2023-01-22T19:29:14.648Z,103299.66
2023-01-22T19:31:47.560Z,103302.34
2023-01-22T19:34:23.199Z,103301.47
2023-01-22T19:36:55.430Z,103304.22
2023-01-22T19:39:22.464Z,103303.31
2023-01-22T19:41:49.286Z,103296.50
2023-01-22T19:44:15.939Z,103303.38
2023-01-22T19:46:42.399Z,103310.34
2023-01-22T19:49:12.719Z,103320.03
2023-01-22T19:51:39.804Z,103320.56
2023-01-22T19:54:06.553Z,103326.16
2023-01-22T19:56:35.696Z,103313.34
2023-01-22T19:59:11.876Z,103328.81
2023-01-22T20:01:39.197Z,103327.19
2023-01-22T20:04:09.033Z,103332.44
2023-01-22T20:06:35.691Z,103327.22
2023-01-22T20:09:02.174Z,103314.28
2023-01-22T20:11:28.632Z,103347.38
2023-01-22T20:13:55.167Z,103350.03
2023-01-22T20:16:27.323Z,103360.63
2023-01-22T20:18:55.898Z,103365.94
2023-01-22T20:21:23.720Z,103370.41
2023-01-22T20:23:50.914Z,103369.50
2023-01-22T20:26:19.272Z,103367.75
2023-01-22T20:28:45.934Z,103352.00
2023-01-22T20:31:16.061Z,103368.53
2023-01-22T20:33:42.579Z,103364.69
2023-01-22T20:36:14.885Z,103357.22
2023-01-22T20:38:42.775Z,103364.25
2023-01-22T20:41:09.287Z,103367.81
2023-01-22T20:43:38.124Z,103367.75
2023-01-22T20:46:12.842Z,103372.06
2023-01-22T20:48:40.608Z,103349.53
2023-01-22T20:51:15.299Z,103369.44
2023-01-22T20:53:42.179Z,103356.38
2023-01-22T20:56:12.825Z,103369.50
2023-01-22T20:58:39.403Z,103373.03
2023-01-22T21:01:09.284Z,103370.41
2023-01-22T21:03:35.824Z,103369.56
2023-01-22T21:06:04.307Z,103362.50
2023-01-22T21:08:31.235Z,103360.78
2023-01-22T21:10:59.543Z,103372.28
2023-01-22T21:13:26.511Z,103365.25
2023-01-22T21:15:53.406Z,103364.38
2023-01-22T21:18:21.428Z,103325.47
2023-01-22T21:20:48.595Z,103365.44
2023-01-22T21:23:15.833Z,103364.56
2023-01-22T21:25:42.560Z,103364.66
2023-01-22T21:28:09.162Z,103358.50
2023-01-22T21:30:35.668Z,103364.72
2023-01-22T21:33:02.210Z,103356.81
2023-01-22T21:35:28.823Z,103356.13
2023-01-22T21:37:55.552Z,103358.72
2023-01-22T21:40:22.010Z,103351.69
2023-01-22T21:43:07.890Z,103355.28
2023-01-22T21:45:53.203Z,103362.28
2023-01-22T21:48:19.809Z,103365.81
2023-01-22T21:50:46.300Z,103348.50
2023-01-22T21:53:12.841Z,103369.50
2023-01-22T21:55:39.452Z,103363.44
2023-01-22T21:58:08.541Z,103376.50
2023-01-22T22:00:35.374Z,103372.91
2023-01-22T22:03:02.008Z,103351.28
2023-01-22T22:05:30.703Z,103379.16
2023-01-22T22:07:58.107Z,103379.16
2023-01-22T22:10:24.654Z,103388.97
2023-01-22T22:12:53.090Z,103375.91
2023-01-22T22:15:19.781Z,103389.25
2023-01-22T22:17:46.241Z,103396.16
2023-01-22T22:20:12.819Z,103394.44
2023-01-22T22:22:39.488Z,103398.84
2023-01-22T22:25:06.421Z,103395.38
2023-01-22T22:27:32.900Z,103401.59
2023-01-22T22:29:59.310Z,103403.47
2023-01-22T22:32:25.727Z,103409.72
2023-01-22T22:34:52.158Z,103400.13
2023-01-22T22:37:18.594Z,103405.38
2023-01-22T22:39:45.032Z,103403.69
2023-01-22T22:42:11.590Z,103406.44
2023-01-22T22:44:38.253Z,103397.50
2023-01-22T22:47:04.971Z,103417.94
2023-01-22T22:49:31.693Z,103403.97
2023-01-22T22:51:58.273Z,103410.16
2023-01-22T22:54:24.775Z,103410.25
2023-01-22T22:56:52.704Z,103404.13
2023-01-22T22:59:20.751Z,103376.41
2023-01-22T23:01:48.753Z,103403.28
2023-01-22T23:04:15.612Z,103397.09
2023-01-22T23:06:44.944Z,103397.13
2023-01-22T23:09:14.283Z,103395.38
2023-01-22T23:11:41.523Z,103398.81
2023-01-22T23:14:08.454Z,103402.38
2023-01-22T23:16:37.618Z,103403.19
2023-01-22T23:19:07.535Z,103400.59
2023-01-22T23:21:36.227Z,103404.25
2023-01-22T23:24:03.453Z,103401.56
2023-01-22T23:26:30.651Z,103405.13
2023-01-22T23:29:00.576Z,103403.41
2023-01-22T23:31:28.605Z,103399.94
2023-01-22T23:33:56.586Z,103396.47
2023-01-22T23:36:25.905Z,103399.94
2023-01-22T23:38:53.648Z,103360.69
2023-01-22T23:41:20.926Z,103399.03
2023-01-22T23:43:47.533Z,103398.16
2023-01-22T23:46:17.840Z,103398.25
2023-01-22T23:48:44.989Z,103407.06
2023-01-22T23:51:13.339Z,103405.41
2023-01-22T23:53:42.336Z,103396.63
2023-01-22T23:56:11.000Z,103397.63
2023-01-22T23:58:37.615Z,103402.84
